Time;durP1;ratioP1;P1;durP2;ratioP2;P2;SDS_P1;SDS_P2;PMS_P1;PMS_P2;Temp;Humidity;BMP_temperature;BMP_pressure;BME280_temperature;BME280_humidity;BME280_pressure;Samples;Min_cycle;Max_cycle;Signal;HPM_P1;HPM_P2
2022/10/14 00:01:45;;;;;;;4.33;3.93;;;14.70;99.90;;;;;;4973080;28;20406;-70
2022/10/14 00:04:11;;;;;;;4.30;3.80;;;14.70;99.90;;;;;;4966055;28;20568;-70
2022/10/14 00:06:37;;;;;;;4.43;4.03;;;14.60;99.90;;;;;;4971310;28;20448;-70
2022/10/14 00:09:08;;;;;;;5.30;4.33;;;14.70;99.90;;;;;;4941097;29;20403;-70
2022/10/14 00:11:37;;;;;;;5.00;4.17;;;14.70;99.90;;;;;;4982107;28;20424;-70
2022/10/14 00:14:11;;;;;;;4.73;4.00;;;14.60;99.90;;;;;;4977195;28;20406;-70
2022/10/14 00:16:42;;;;;;;6.90;4.27;;;14.60;99.90;;;;;;4977390;28;20469;-70
2022/10/14 00:19:12;;;;;;;4.23;3.73;;;14.60;99.90;;;;;;4976018;28;20416;-70
2022/10/14 00:21:43;;;;;;;5.23;4.40;;;14.60;99.90;;;;;;4960001;28;20979;-70
2022/10/14 00:24:12;;;;;;;7.43;4.73;;;14.60;99.90;;;;;;4975758;28;20528;-70
2022/10/14 00:26:39;;;;;;;7.80;5.00;;;14.60;99.90;;;;;;4992029;28;20442;-70
2022/10/14 00:29:10;;;;;;;6.17;4.30;;;14.60;99.90;;;;;;4959782;28;20533;-70
2022/10/14 00:31:36;;;;;;;3.93;3.50;;;14.60;99.90;;;;;;4991907;28;20494;-71
2022/10/14 00:34:02;;;;;;;6.17;4.37;;;14.60;99.90;;;;;;4991904;28;20406;-71
2022/10/14 00:36:31;;;;;;;6.23;3.93;;;14.60;99.90;;;;;;4975861;28;20478;-72
2022/10/14 00:39:01;;;;;;;6.17;4.63;;;14.60;99.90;;;;;;4991597;28;20456;-71
2022/10/14 00:41:32;;;;;;;6.20;4.47;;;14.60;99.90;;;;;;4976808;28;20406;-71
2022/10/14 00:44:10;;;;;;;4.67;4.10;;;14.60;99.90;;;;;;4964569;28;20475;-71
2022/10/14 00:46:48;;;;;;;5.00;3.70;;;14.60;99.90;;;;;;4956336;29;21042;-71
2022/10/14 00:49:39;;;;;;;5.00;4.40;;;14.60;99.90;;;;;;4972214;28;20399;-71
2022/10/14 00:52:16;;;;;;;5.60;4.23;;;14.60;99.90;;;;;;4957335;28;20406;-71
2022/10/14 00:55:09;;;;;;;5.17;4.23;;;14.60;99.90;;;;;;4956230;29;20403;-71
2022/10/14 00:57:38;;;;;;;9.33;4.43;;;14.60;99.90;;;;;;4940299;29;20450;-71
2022/10/14 01:00:08;;;;;;;5.13;4.10;;;14.60;99.90;;;;;;4957214;29;20782;-71
2022/10/14 01:02:36;;;;;;;5.57;4.13;;;14.60;99.90;;;;;;4971237;28;20479;-71
2022/10/14 01:05:05;;;;;;;5.30;4.80;;;14.60;99.90;;;;;;4955444;29;20403;-71
2022/10/14 01:07:45;;;;;;;5.67;4.30;;;14.60;99.90;;;;;;4955849;28;21001;-71
2022/10/14 01:10:35;;;;;;;4.53;4.00;;;14.60;99.90;;;;;;4956965;28;20411;-71
2022/10/14 01:13:13;;;;;;;5.93;5.00;;;14.60;99.90;;;;;;4955833;28;20985;-71
2022/10/14 01:15:54;;;;;;;5.20;4.27;;;14.60;99.90;;;;;;4971448;28;20466;-71
2022/10/14 01:18:23;;;;;;;7.60;4.30;;;14.60;99.90;;;;;;4955510;29;20599;-71
2022/10/14 01:21:11;;;;;;;5.23;4.40;;;14.60;99.90;;;;;;4971750;28;20417;-71
2022/10/14 01:24:12;;;;;;;6.80;4.80;;;14.60;99.90;;;;;;4955381;29;20477;-71
2022/10/14 01:27:00;;;;;;;6.37;4.57;;;14.60;99.90;;;;;;4971284;28;20431;-71
2022/10/14 01:30:13;;;;;;;6.67;4.40;;;14.60;99.90;;;;;;4955308;29;20469;-71
2022/10/14 01:32:54;;;;;;;7.30;4.87;;;14.60;99.90;;;;;;4935477;29;20970;-71
2022/10/14 01:35:35;;;;;;;5.07;4.30;;;14.60;99.90;;;;;;4939221;29;20474;-72
2022/10/14 01:38:11;;;;;;;5.37;4.87;;;14.60;99.90;;;;;;4971439;28;20845;-71
2022/10/14 01:40:59;;;;;;;6.40;5.60;;;14.60;99.90;;;;;;4955307;29;20786;-71
2022/10/14 01:43:28;;;;;;;5.77;4.53;;;14.60;99.90;;;;;;4969396;28;21026;-71
2022/10/14 01:45:59;;;;;;;5.57;4.30;;;14.60;99.90;;;;;;4958549;28;20424;-71
2022/10/14 01:48:35;;;;;;;5.63;4.90;;;14.60;99.90;;;;;;4958489;28;20520;-71
2022/10/14 01:51:10;;;;;;;5.37;4.80;;;14.60;99.90;;;;;;4957197;28;20430;-71
2022/10/14 01:53:42;;;;;;;6.60;5.23;;;14.60;99.90;;;;;;4939041;29;20453;-71
2022/10/14 01:56:18;;;;;;;5.37;4.63;;;14.60;99.90;;;;;;4955258;28;20947;-71
2022/10/14 01:58:45;;;;;;;5.13;4.63;;;14.60;99.90;;;;;;4955108;29;20441;-71
2022/10/14 02:01:11;;;;;;;4.57;4.17;;;14.60;99.90;;;;;;4939068;29;20427;-71
2022/10/14 02:03:43;;;;;;;5.23;4.73;;;14.60;99.90;;;;;;4954603;29;20478;-71
2022/10/14 02:06:23;;;;;;;5.10;3.77;;;14.60;99.90;;;;;;4954873;28;20453;-71
2022/10/14 02:08:57;;;;;;;5.73;4.80;;;14.60;99.90;;;;;;4954972;28;20422;-71
2022/10/14 02:11:33;;;;;;;7.00;4.93;;;14.60;99.90;;;;;;4955846;28;20415;-71
2022/10/14 02:14:18;;;;;;;7.20;5.37;;;14.60;99.90;;;;;;4954730;28;20907;-71
2022/10/14 02:17:10;;;;;;;6.67;5.67;;;14.60;99.90;;;;;;4954643;29;20464;-71
2022/10/14 02:19:58;;;;;;;6.80;5.50;;;14.60;99.90;;;;;;4949184;28;20449;-71
2022/10/14 02:22:30;;;;;;;5.63;4.70;;;14.60;99.90;;;;;;4970443;28;20494;-71
2022/10/14 02:25:23;;;;;;;6.13;5.37;;;14.60;99.90;;;;;;4968378;28;20406;-71
2022/10/14 02:27:52;;;;;;;6.77;5.93;;;14.60;99.90;;;;;;4954786;29;20479;-71
2022/10/14 02:30:18;;;;;;;8.00;6.60;;;14.60;99.90;;;;;;4970409;28;20404;-71
2022/10/14 02:32:55;;;;;;;6.43;5.83;;;14.60;99.90;;;;;;4953118;28;20937;-71
2022/10/14 02:35:24;;;;;;;5.20;4.37;;;14.60;99.90;;;;;;4974664;28;21034;-71
2022/10/14 02:37:56;;;;;;;5.73;5.23;;;14.60;99.90;;;;;;4957745;28;20855;-71
2022/10/14 02:40:41;;;;;;;5.57;5.00;;;14.60;99.90;;;;;;4974788;28;20772;-71
2022/10/14 02:43:11;;;;;;;6.60;5.23;;;14.60;99.90;;;;;;4989589;28;20475;-71
2022/10/14 02:45:40;;;;;;;6.87;6.00;;;14.60;99.90;;;;;;4973348;28;20481;-71
2022/10/14 02:48:07;;;;;;;6.50;5.60;;;14.60;99.90;;;;;;4941453;28;20455;-71
2022/10/14 02:50:37;;;;;;;9.10;5.73;;;14.60;99.90;;;;;;4974543;28;20917;-71
2022/10/14 02:53:05;;;;;;;6.60;5.77;;;14.60;99.90;;;;;;4989521;28;20911;-71
2022/10/14 02:55:31;;;;;;;6.63;5.93;;;14.60;99.90;;;;;;4973296;28;20441;-71
2022/10/14 02:57:58;;;;;;;8.10;5.30;;;14.60;99.90;;;;;;4973426;28;20442;-71
2022/10/14 03:00:25;;;;;;;6.73;5.60;;;14.60;99.90;;;;;;4941579;28;20502;-71
2022/10/14 03:02:55;;;;;;;7.03;5.80;;;14.60;99.90;;;;;;4973067;28;20476;-71
2022/10/14 03:05:24;;;;;;;7.33;6.50;;;14.60;99.90;;;;;;4957359;28;20426;-71
2022/10/14 03:07:52;;;;;;;8.60;5.77;;;14.60;99.90;;;;;;4967098;28;20454;-71
2022/10/14 03:10:19;;;;;;;7.40;5.50;;;14.60;99.90;;;;;;4938079;29;20414;-71
2022/10/14 03:12:48;;;;;;;6.50;5.87;;;14.60;99.90;;;;;;4953910;29;20395;-71
2022/10/14 03:15:23;;;;;;;5.90;5.30;;;14.60;99.90;;;;;;4938032;29;20429;-71
2022/10/14 03:17:49;;;;;;;6.37;5.73;;;14.60;99.90;;;;;;4940401;28;20960;-71
2022/10/14 03:20:20;;;;;;;6.50;5.87;;;14.60;99.90;;;;;;4973122;28;20533;-71
2022/10/14 03:22:50;;;;;;;6.33;5.30;;;14.60;99.90;;;;;;4957057;28;20462;-71
2022/10/14 03:25:28;;;;;;;6.30;5.00;;;14.60;99.90;;;;;;4987789;28;20508;-71
2022/10/14 03:28:23;;;;;;;5.40;4.90;;;14.60;99.90;;;;;;4972426;28;20449;-71
2022/10/14 03:30:59;;;;;;;6.73;5.90;;;14.60;99.90;;;;;;4993154;28;20439;-71
2022/10/14 03:33:47;;;;;;;6.70;5.77;;;14.60;99.90;;;;;;4977059;28;20443;-71
2022/10/14 03:36:17;;;;;;;5.83;4.70;;;14.60;99.90;;;;;;4976958;28;20776;-71
2022/10/14 03:38:53;;;;;;;5.73;5.20;;;14.60;99.90;;;;;;4945264;28;20537;-71
2022/10/14 03:41:38;;;;;;;6.33;5.53;;;14.60;99.90;;;;;;4950977;28;20468;-71
2022/10/14 03:44:05;;;;;;;6.27;5.43;;;14.60;99.90;;;;;;4976649;28;20457;-71
2022/10/14 03:46:33;;;;;;;7.17;6.07;;;14.60;99.90;;;;;;4992746;28;20438;-71
2022/10/14 03:49:02;;;;;;;6.03;5.40;;;14.60;99.90;;;;;;4960692;28;20433;-71
2022/10/14 03:51:32;;;;;;;7.23;6.03;;;14.60;99.90;;;;;;4976617;28;20402;-71
2022/10/14 03:54:20;;;;;;;6.10;5.53;;;14.60;99.90;;;;;;4976378;28;20492;-71
2022/10/14 03:56:47;;;;;;;7.57;5.57;;;14.60;99.90;;;;;;4976351;28;21013;-71
2022/10/14 03:59:18;;;;;;;5.50;5.00;;;14.60;99.90;;;;;;4992633;28;20629;-71
2022/10/14 04:01:55;;;;;;;5.70;5.10;;;14.60;99.90;;;;;;4976291;28;20455;-71
2022/10/14 04:04:24;;;;;;;9.53;5.53;;;14.60;99.90;;;;;;4960494;28;20946;-71
2022/10/14 04:06:49;;;;;;;5.73;5.13;;;14.60;99.90;;;;;;4960167;28;20438;-71
2022/10/14 04:09:18;;;;;;;5.83;5.23;;;14.60;99.90;;;;;;4976120;28;20421;-71
2022/10/14 04:11:49;;;;;;;6.63;5.90;;;14.60;99.90;;;;;;4976640;28;20423;-71
2022/10/14 04:14:35;;;;;;;5.90;4.77;;;14.60;99.90;;;;;;4973834;28;20433;-71
2022/10/14 04:17:04;;;;;;;6.40;5.33;;;14.60;99.90;;;;;;4957771;28;20477;-71
2022/10/14 04:19:32;;;;;;;7.00;5.70;;;14.60;99.90;;;;;;4982653;28;20517;-71
2022/10/14 04:22:02;;;;;;;5.23;4.73;;;14.60;99.90;;;;;;4958075;28;20418;-71
2022/10/14 04:24:31;;;;;;;5.53;4.93;;;14.60;99.90;;;;;;4979700;28;20879;-71
2022/10/14 04:27:00;;;;;;;5.40;4.87;;;14.60;99.90;;;;;;4957394;28;20447;-74
2022/10/14 04:29:51;;;;;;;5.30;4.80;;;14.60;99.90;;;;;;4965885;28;20493;-72
2022/10/14 04:32:32;;;;;;;5.97;5.10;;;14.60;99.90;;;;;;4971813;28;20418;-73
2022/10/14 04:34:59;;;;;;;7.13;5.30;;;14.60;99.90;;;;;;4956113;28;20530;-74
2022/10/14 04:37:31;;;;;;;6.30;5.60;;;14.60;99.90;;;;;;4965972;28;20466;-74
2022/10/14 04:40:08;;;;;;;5.30;4.53;;;14.60;99.90;;;;;;4940444;29;20454;-74
2022/10/14 04:42:40;;;;;;;5.63;5.13;;;14.60;99.90;;;;;;4971433;28;20451;-74
2022/10/14 04:45:15;;;;;;;5.63;5.00;;;14.60;99.90;;;;;;4972492;28;20966;-74
2022/10/14 04:47:48;;;;;;;7.73;5.83;;;14.60;99.90;;;;;;4958715;28;20450;-74
2022/10/14 04:50:22;;;;;;;5.00;4.50;;;14.60;99.90;;;;;;4987387;28;20434;-74
2022/10/14 04:53:08;;;;;;;6.60;4.67;;;14.60;99.90;;;;;;4962063;28;20919;-73
2022/10/14 04:55:38;;;;;;;5.23;4.73;;;14.60;99.90;;;;;;4987930;28;20420;-74
2022/10/14 04:58:04;;;;;;;4.83;4.43;;;14.60;99.90;;;;;;4960655;28;20448;-74
2022/10/14 05:00:40;;;;;;;5.07;4.57;;;14.60;99.90;;;;;;4974756;28;20419;-74
2022/10/14 05:03:24;;;;;;;5.53;5.03;;;14.60;99.90;;;;;;4973297;28;20479;-74
2022/10/14 05:05:55;;;;;;;5.07;4.57;;;14.60;99.90;;;;;;4954891;29;20811;-73
2022/10/14 05:08:22;;;;;;;5.20;4.70;;;14.60;99.90;;;;;;4949187;28;20484;-74
2022/10/14 05:10:54;;;;;;;5.03;4.53;;;14.50;99.90;;;;;;4986669;28;20426;-74
2022/10/14 05:13:37;;;;;;;5.50;5.00;;;14.50;99.90;;;;;;4960969;28;20462;-74
2022/10/14 05:16:07;;;;;;;5.40;4.90;;;14.60;99.90;;;;;;4958096;28;20425;-74
2022/10/14 05:18:37;;;;;;;6.17;5.07;;;14.60;99.90;;;;;;4972476;28;20426;-73
2022/10/14 05:21:11;;;;;;;6.07;5.13;;;14.60;99.90;;;;;;4974648;28;20885;-75
2022/10/14 05:23:53;;;;;;;5.40;4.90;;;14.60;99.90;;;;;;4975031;28;20991;-75
2022/10/14 05:26:25;;;;;;;5.77;5.20;;;14.60;99.90;;;;;;4965604;28;21033;-74
2022/10/14 05:28:51;;;;;;;4.97;4.47;;;14.60;99.90;;;;;;4989446;28;20921;-75
2022/10/14 05:31:23;;;;;;;5.00;4.50;;;14.60;99.90;;;;;;4955310;28;20433;-75
2022/10/14 05:34:00;;;;;;;5.53;4.37;;;14.60;99.90;;;;;;4968599;28;20981;-74
2022/10/14 05:36:26;;;;;;;5.00;4.47;;;14.60;99.90;;;;;;4970425;28;20439;-76
2022/10/14 05:38:55;;;;;;;5.00;4.60;;;14.60;99.90;;;;;;4951840;29;20448;-75
2022/10/14 05:41:27;;;;;;;4.93;4.43;;;14.60;99.90;;;;;;4954602;28;20794;-75
2022/10/14 05:43:54;;;;;;;4.97;4.47;;;14.60;99.90;;;;;;4969146;28;20481;-75
2022/10/14 05:46:22;;;;;;;4.93;4.43;;;14.60;99.90;;;;;;4953148;29;20875;-75
2022/10/14 05:48:54;;;;;;;4.80;4.37;;;14.60;99.90;;;;;;4972837;28;20433;-75
2022/10/14 05:51:23;;;;;;;5.23;4.20;;;14.60;99.90;;;;;;4989177;28;20876;-75
2022/10/14 05:53:59;;;;;;;4.97;4.47;;;14.60;99.90;;;;;;4958827;28;20432;-75
2022/10/14 05:56:55;;;;;;;3.83;3.43;;;14.60;99.90;;;;;;4969774;28;21277;-75
2022/10/14 05:59:25;;;;;;;4.20;3.80;;;14.60;99.90;;;;;;4979805;28;20431;-75
2022/10/14 06:02:11;;;;;;;6.30;4.40;;;14.60;99.90;;;;;;4956326;28;20525;-75
2022/10/14 06:04:39;;;;;;;6.37;4.20;;;14.60;99.90;;;;;;4953666;29;20516;-75
2022/10/14 06:07:35;;;;;;;6.30;4.10;;;14.60;99.90;;;;;;4940831;28;20457;-75
2022/10/14 06:10:03;;;;;;;4.93;4.27;;;14.60;99.90;;;;;;4972903;28;20409;-75
2022/10/14 06:12:29;;;;;;;4.63;4.23;;;14.60;99.90;;;;;;4965324;28;20478;-75
2022/10/14 06:14:56;;;;;;;5.43;4.40;;;14.60;99.90;;;;;;4976661;28;20425;-75
2022/10/14 06:17:22;;;;;;;4.17;3.80;;;14.60;99.90;;;;;;4968784;28;20987;-75
2022/10/14 06:19:48;;;;;;;4.73;4.20;;;14.60;99.90;;;;;;4988660;28;20407;-75
2022/10/14 06:22:16;;;;;;;4.77;3.30;;;14.60;99.90;;;;;;4958126;28;20431;-75
2022/10/14 06:24:42;;;;;;;4.60;4.20;;;14.50;99.90;;;;;;4963772;28;20419;-75
2022/10/14 06:27:10;;;;;;;4.03;3.70;;;14.60;99.90;;;;;;4939635;29;20554;-74
2022/10/14 06:29:39;;;;;;;4.53;4.13;;;14.60;99.90;;;;;;4958347;28;21091;-74
2022/10/14 06:32:09;;;;;;;4.27;3.87;;;14.60;99.90;;;;;;4955565;28;20508;-74
2022/10/14 06:34:35;;;;;;;5.10;4.30;;;14.60;99.90;;;;;;4961728;28;20422;-74
2022/10/14 06:37:01;;;;;;;4.60;4.20;;;14.60;99.90;;;;;;4971666;28;20537;-75
2022/10/14 06:39:27;;;;;;;4.40;4.00;;;14.60;99.90;;;;;;4953859;28;20529;-74
2022/10/14 06:41:56;;;;;;;4.73;3.80;;;14.60;99.90;;;;;;4953227;29;20418;-74
2022/10/14 06:44:24;;;;;;;5.87;4.77;;;14.60;99.90;;;;;;4980351;28;20450;-75
2022/10/14 06:46:53;;;;;;;5.37;4.07;;;14.60;99.90;;;;;;4953963;28;20439;-74
2022/10/14 06:49:21;;;;;;;4.23;3.83;;;14.60;99.90;;;;;;4968986;28;20474;-73
2022/10/14 06:51:47;;;;;;;4.10;3.37;;;14.60;99.90;;;;;;4960418;28;20916;-75
2022/10/14 06:54:15;;;;;;;4.43;4.07;;;14.50;99.90;;;;;;4959078;28;20876;-75
2022/10/14 06:56:41;;;;;;;5.40;3.97;;;14.60;99.90;;;;;;4946385;28;20458;-75
2022/10/14 06:59:09;;;;;;;4.30;3.70;;;14.60;99.90;;;;;;4958653;28;20427;-75
2022/10/14 07:01:35;;;;;;;4.00;3.60;;;14.60;99.90;;;;;;4954759;28;20898;-74
2022/10/14 07:04:09;;;;;;;4.27;3.87;;;14.60;99.90;;;;;;4974860;28;20476;-75
2022/10/14 07:06:36;;;;;;;4.43;3.50;;;14.60;99.90;;;;;;4955060;28;20481;-75
2022/10/14 07:09:03;;;;;;;4.70;4.30;;;14.60;99.90;;;;;;4951479;28;20435;-75
2022/10/14 07:11:29;;;;;;;4.80;4.40;;;14.60;99.90;;;;;;4956572;28;20457;-75
2022/10/14 07:14:00;;;;;;;4.30;3.90;;;14.60;99.90;;;;;;4970469;28;20489;-74
2022/10/14 07:16:27;;;;;;;3.87;3.47;;;14.60;99.90;;;;;;4968748;28;20454;-75
2022/10/14 07:18:53;;;;;;;4.47;3.37;;;14.60;99.90;;;;;;4986474;28;20404;-74
2022/10/14 07:21:24;;;;;;;4.00;3.60;;;14.60;99.90;;;;;;4963779;28;20437;-75
2022/10/14 07:23:50;;;;;;;4.77;3.83;;;14.60;99.90;;;;;;4952653;28;20944;-75
2022/10/14 07:26:17;;;;;;;4.80;3.80;;;14.60;99.90;;;;;;4942381;28;20461;-75
2022/10/14 07:28:45;;;;;;;4.77;3.90;;;14.60;99.90;;;;;;4987559;28;20989;-75
2022/10/14 07:31:12;;;;;;;3.70;3.17;;;14.60;99.90;;;;;;4981824;28;20431;-75
2022/10/14 07:33:39;;;;;;;4.73;3.90;;;14.60;99.90;;;;;;4952380;29;20930;-74
2022/10/14 07:36:15;;;;;;;5.30;3.67;;;14.60;99.90;;;;;;4956946;28;20425;-75
2022/10/14 07:38:41;;;;;;;3.83;3.43;;;14.60;99.90;;;;;;4957612;28;20459;-74
2022/10/14 07:41:24;;;;;;;5.17;3.93;;;14.70;99.90;;;;;;4956469;28;20804;-75
2022/10/14 07:44:07;;;;;;;3.97;3.50;;;14.70;99.90;;;;;;4960355;28;20502;-75
2022/10/14 07:46:36;;;;;;;5.60;3.90;;;14.60;99.90;;;;;;4959778;28;20977;-75
2022/10/14 07:49:15;;;;;;;6.00;3.87;;;14.70;99.90;;;;;;4968847;28;21021;-75
2022/10/14 07:51:42;;;;;;;4.80;3.57;;;14.70;99.90;;;;;;4944427;28;20477;-75
2022/10/14 07:54:17;;;;;;;4.27;3.87;;;14.70;99.90;;;;;;4926958;28;20434;-75
2022/10/14 07:56:48;;;;;;;4.30;3.70;;;14.70;99.90;;;;;;4947310;28;20477;-75
2022/10/14 07:59:18;;;;;;;3.70;3.40;;;14.70;99.90;;;;;;4983446;28;20430;-75
2022/10/14 08:01:48;;;;;;;5.10;3.47;;;14.70;99.90;;;;;;4945257;29;20498;-74
2022/10/14 08:04:22;;;;;;;5.03;3.87;;;14.70;99.90;;;;;;4934030;29;20483;-75
2022/10/14 08:06:50;;;;;;;3.93;3.53;;;14.70;99.90;;;;;;4969063;28;20811;-74
2022/10/14 08:09:20;;;;;;;3.90;3.50;;;14.70;99.90;;;;;;4970869;28;20835;-75
2022/10/14 08:11:49;;;;;;;4.27;3.87;;;14.70;99.90;;;;;;4969989;28;20456;-75
2022/10/14 08:14:15;;;;;;;4.17;3.23;;;14.70;99.90;;;;;;4958406;28;20463;-74
2022/10/14 08:16:41;;;;;;;4.90;3.57;;;14.70;99.90;;;;;;4971298;28;20452;-75
2022/10/14 08:19:10;;;;;;;4.27;3.97;;;14.70;99.90;;;;;;4966882;28;20502;-75
2022/10/14 08:21:41;;;;;;;4.80;3.70;;;14.70;99.90;;;;;;4970115;28;20493;-74
2022/10/14 08:24:08;;;;;;;4.73;4.23;;;14.70;99.90;;;;;;4964544;28;20517;-76
2022/10/14 08:26:38;;;;;;;4.13;3.43;;;14.70;99.90;;;;;;4955175;28;20823;-76
2022/10/14 08:29:08;;;;;;;3.70;3.40;;;14.70;99.90;;;;;;4945638;29;20841;-76
2022/10/14 08:31:49;;;;;;;4.07;3.70;;;14.70;99.90;;;;;;4963540;28;20458;-75
2022/10/14 08:34:20;;;;;;;3.83;2.77;;;14.70;99.90;;;;;;4974169;28;20429;-75
2022/10/14 08:36:52;;;;;;;3.83;3.47;;;14.70;99.90;;;;;;4974175;28;20460;-75
2022/10/14 08:39:19;;;;;;;3.97;3.27;;;14.70;99.90;;;;;;4956056;28;20442;-75
2022/10/14 08:41:55;;;;;;;7.20;3.30;;;14.70;99.90;;;;;;4955774;28;20528;-75
2022/10/14 08:44:24;;;;;;;3.27;2.97;;;14.70;99.90;;;;;;4960943;28;20481;-76
2022/10/14 08:46:56;;;;;;;4.33;2.40;;;14.70;99.90;;;;;;4969080;28;20556;-76
2022/10/14 08:49:49;;;;;;;3.07;2.77;;;14.70;99.90;;;;;;4969115;28;20524;-76
2022/10/14 08:52:42;;;;;;;3.40;3.10;;;14.70;99.90;;;;;;4937634;29;20459;-76
2022/10/14 08:55:17;;;;;;;4.73;3.13;;;14.70;99.90;;;;;;4932461;29;20447;-76
2022/10/14 08:57:56;;;;;;;3.57;3.27;;;14.80;99.90;;;;;;4953704;29;20464;-76
2022/10/14 09:00:25;;;;;;;4.83;3.17;;;14.80;99.90;;;;;;4960948;28;20975;-76
2022/10/14 09:02:51;;;;;;;4.30;3.07;;;14.80;99.90;;;;;;4972387;28;20885;-77
2022/10/14 09:05:24;;;;;;;3.17;2.60;;;14.80;99.90;;;;;;4973025;28;20451;-77
2022/10/14 09:07:54;;;;;;;2.80;2.60;;;14.70;99.90;;;;;;4956772;28;20452;-76
2022/10/14 09:10:31;;;;;;;4.30;3.30;;;14.80;99.90;;;;;;4956289;29;20470;-77
2022/10/14 09:13:09;;;;;;;3.13;2.80;;;14.80;99.90;;;;;;4953942;28;20423;-77
2022/10/14 09:15:42;;;;;;;2.90;2.30;;;14.80;99.90;;;;;;4947623;28;20656;-76
2022/10/14 09:18:45;;;;;;;3.23;2.93;;;14.80;99.90;;;;;;4946568;29;20455;-77
2022/10/14 09:21:36;;;;;;;3.60;3.00;;;14.80;99.90;;;;;;4954221;28;20850;-77
2022/10/14 09:24:13;;;;;;;3.57;2.93;;;14.80;99.90;;;;;;4954734;28;20467;-76
2022/10/14 09:26:44;;;;;;;3.80;3.10;;;14.80;99.90;;;;;;4953987;28;20473;-76
2022/10/14 09:29:56;;;;;;;4.20;2.70;;;14.80;99.90;;;;;;4937803;29;20460;-78
2022/10/14 09:32:39;;;;;;;3.70;2.50;;;14.80;99.90;;;;;;4953558;28;20461;-77
2022/10/14 09:35:32;;;;;;;3.20;2.83;;;14.80;99.90;;;;;;4954665;28;20786;-77
2022/10/14 09:38:25;;;;;;;4.20;2.57;;;14.80;99.90;;;;;;4959146;28;20991;-77
2022/10/14 09:40:57;;;;;;;4.37;2.43;;;14.90;99.90;;;;;;4962614;28;20430;-77
2022/10/14 09:43:26;;;;;;;3.00;2.80;;;14.90;99.90;;;;;;4970987;28;20880;-77
2022/10/14 09:46:06;;;;;;;4.17;2.80;;;14.90;99.90;;;;;;4955060;28;20546;-77
2022/10/14 09:48:42;;;;;;;3.03;2.73;;;14.90;99.90;;;;;;4960075;28;20431;-77
2022/10/14 09:51:31;;;;;;;2.80;2.60;;;14.90;99.90;;;;;;4914342;29;20689;-77
2022/10/14 09:54:03;;;;;;;4.23;2.67;;;14.90;99.90;;;;;;4899175;29;20531;-77
2022/10/14 09:56:36;;;;;;;2.50;2.30;;;14.90;99.90;;;;;;4948284;28;20464;-77
2022/10/14 09:59:12;;;;;;;4.70;2.40;;;14.90;99.90;;;;;;4972423;28;20851;-77
2022/10/14 10:01:56;;;;;;;3.00;2.70;;;14.90;99.90;;;;;;4956131;28;20463;-77
2022/10/14 10:04:30;;;;;;;3.37;2.57;;;14.90;99.90;;;;;;4957821;28;20471;-77
2022/10/14 10:07:21;;;;;;;2.80;2.50;;;15.00;99.90;;;;;;4955887;28;20478;-78
2022/10/14 10:09:54;;;;;;;2.93;2.67;;;14.90;99.90;;;;;;4965126;28;20497;-76
2022/10/14 10:12:34;;;;;;;2.60;2.07;;;15.00;99.90;;;;;;4961079;28;20896;-77
2022/10/14 10:15:07;;;;;;;2.40;2.20;;;15.00;99.90;;;;;;4963832;28;20496;-77
2022/10/14 10:17:57;;;;;;;5.20;3.00;;;15.00;99.90;;;;;;4959254;28;20465;-77
2022/10/14 10:20:32;;;;;;;3.13;2.83;;;15.00;99.90;;;;;;4957112;28;20464;-77
2022/10/14 10:23:25;;;;;;;2.83;2.40;;;15.00;99.90;;;;;;4960429;28;20470;-77
2022/10/14 10:25:52;;;;;;;2.93;2.13;;;15.00;99.90;;;;;;4939021;28;20454;-77
2022/10/14 10:28:47;;;;;;;3.93;3.50;;;15.00;99.90;;;;;;4973103;28;20933;-77
2022/10/14 10:31:56;;;;;;;3.20;2.90;;;15.00;99.90;;;;;;4966169;28;20442;-77
2022/10/14 10:34:33;;;;;;;3.70;2.90;;;15.00;99.90;;;;;;4949002;28;20453;-76
2022/10/14 10:37:04;;;;;;;4.30;2.50;;;15.00;99.90;;;;;;4968938;28;20448;-77
2022/10/14 10:39:56;;;;;;;6.40;3.00;;;15.00;99.90;;;;;;4956005;28;20429;-75
2022/10/14 10:42:38;;;;;;;3.40;2.37;;;15.00;99.90;;;;;;4961999;28;20552;-76
2022/10/14 10:45:22;;;;;;;3.17;2.83;;;15.00;99.90;;;;;;4932274;29;20928;-76
2022/10/14 10:48:10;;;;;;;3.87;3.20;;;15.00;99.90;;;;;;4949851;28;20461;-76
2022/10/14 10:50:42;;;;;;;3.50;2.60;;;15.10;99.90;;;;;;4945221;28;20466;-76
2022/10/14 10:53:21;;;;;;;3.43;2.73;;;15.10;99.90;;;;;;4966817;28;20426;-75
2022/10/14 10:56:06;;;;;;;2.93;2.63;;;15.10;99.90;;;;;;4952282;28;20786;-76
2022/10/14 10:59:10;;;;;;;3.53;3.10;;;15.10;99.90;;;;;;4967662;28;20481;-74
2022/10/14 11:01:53;;;;;;;2.73;2.53;;;15.10;99.90;;;;;;4970240;28;20486;-75
2022/10/14 11:04:29;;;;;;;3.37;2.60;;;15.10;99.90;;;;;;4952515;28;20467;-76
2022/10/14 11:13:05;;;;;;;3.03;2.70;;;15.10;99.90;;;;;;4981545;28;20474;-76
2022/10/14 11:15:52;;;;;;;3.83;2.90;;;15.10;99.90;;;;;;4970948;28;20494;-76
2022/10/14 11:18:23;;;;;;;3.77;2.77;;;15.10;99.90;;;;;;4970379;28;20540;-76
2022/10/14 11:21:15;;;;;;;3.30;3.00;;;15.10;99.90;;;;;;4954795;28;20427;-76
2022/10/14 11:23:48;;;;;;;3.23;2.53;;;15.10;99.90;;;;;;4952479;28;20474;-74
2022/10/14 11:26:42;;;;;;;3.30;2.87;;;15.10;99.90;;;;;;4931248;29;20436;-76
2022/10/14 11:29:34;;;;;;;2.93;2.63;;;15.20;99.90;;;;;;4916604;29;20510;-76
2022/10/14 11:32:30;;;;;;;2.60;2.40;;;15.20;99.90;;;;;;4933052;29;21033;-77
2022/10/14 11:35:04;;;;;;;3.60;3.20;;;15.10;99.90;;;;;;4934060;29;20414;-75
2022/10/14 11:38:04;;;;;;;2.90;2.70;;;15.20;99.90;;;;;;4949685;28;20474;-75
2022/10/14 11:40:58;;;;;;;3.13;2.83;;;15.20;99.90;;;;;;4948964;28;20441;-74
2022/10/14 11:43:51;;;;;;;4.17;3.13;;;15.20;99.90;;;;;;4968582;28;20438;-76
2022/10/14 11:46:23;;;;;;;5.00;3.23;;;15.20;99.90;;;;;;4971794;28;20416;-74
2022/10/14 11:48:55;;;;;;;3.40;2.90;;;15.20;99.90;;;;;;4954942;28;20435;-77
2022/10/14 11:51:23;;;;;;;3.30;3.00;;;15.20;99.90;;;;;;4945845;29;20473;-79
2022/10/14 11:54:00;;;;;;;4.10;2.90;;;15.20;99.90;;;;;;4956257;29;20402;-79
2022/10/14 11:56:38;;;;;;;5.07;3.40;;;15.20;99.90;;;;;;4965519;28;20808;-77
2022/10/14 11:59:45;;;;;;;3.80;3.33;;;15.20;99.90;;;;;;4954453;28;20643;-76
2022/10/14 12:02:42;;;;;;;3.43;2.77;;;15.20;99.90;;;;;;4955167;28;20434;-77
2022/10/14 12:05:43;;;;;;;4.10;3.50;;;15.20;99.90;;;;;;4928160;29;20440;-76
2022/10/14 12:08:19;;;;;;;4.20;3.37;;;15.20;99.90;;;;;;4971248;28;20833;-73
2022/10/14 12:11:04;;;;;;;3.70;3.40;;;15.20;99.90;;;;;;4955409;28;20987;-71
2022/10/14 12:13:40;;;;;;;4.17;3.60;;;15.20;99.90;;;;;;4971131;28;21055;-74
2022/10/14 12:16:25;;;;;;;5.03;3.73;;;15.20;99.90;;;;;;4957398;28;20433;-74
2022/10/14 12:18:56;;;;;;;3.93;3.27;;;15.20;99.90;;;;;;4963025;28;20828;-74
2022/10/14 12:21:30;;;;;;;5.10;4.03;;;15.20;99.90;;;;;;4959219;28;20517;-74
2022/10/14 12:24:08;;;;;;;4.23;3.60;;;15.20;99.90;;;;;;4972326;28;20466;-74
2022/10/14 12:27:00;;;;;;;4.80;3.67;;;15.20;99.90;;;;;;4976623;28;20488;-74
2022/10/14 12:29:47;;;;;;;4.63;3.47;;;15.20;99.90;;;;;;4973919;28;20406;-74
2022/10/14 12:32:18;;;;;;;5.00;3.47;;;15.30;99.90;;;;;;4951072;28;20443;-74
2022/10/14 12:34:48;;;;;;;4.77;3.60;;;15.30;99.90;;;;;;4954190;28;20424;-74
2022/10/14 12:37:49;;;;;;;4.00;3.33;;;15.20;99.90;;;;;;4969625;28;20443;-74
2022/10/14 12:40:24;;;;;;;4.30;3.60;;;15.30;99.90;;;;;;4939378;28;20438;-74
2022/10/14 12:42:56;;;;;;;4.10;3.47;;;15.30;99.90;;;;;;4934167;29;20465;-74
2022/10/14 12:45:25;;;;;;;3.87;3.40;;;15.30;99.90;;;;;;4942730;28;20812;-74
2022/10/14 12:48:18;;;;;;;4.73;3.87;;;15.30;99.90;;;;;;4967430;28;20442;-71
2022/10/14 12:50:45;;;;;;;5.20;3.93;;;15.30;99.90;;;;;;4964013;28;20416;-72
2022/10/14 12:53:27;;;;;;;5.17;4.00;;;15.30;99.90;;;;;;4953698;29;20429;-72
2022/10/14 12:55:58;;;;;;;4.37;3.57;;;15.30;99.90;;;;;;4946960;28;20448;-72
2022/10/14 12:58:32;;;;;;;4.63;4.07;;;15.30;99.90;;;;;;4972186;28;20452;-72
2022/10/14 13:01:03;;;;;;;4.73;4.23;;;15.30;99.90;;;;;;4928870;29;20524;-72
2022/10/14 13:03:41;;;;;;;4.80;3.90;;;15.30;99.90;;;;;;4953229;29;20477;-72
2022/10/14 13:07:11;;;;;;;4.43;4.03;;;15.30;99.90;;;;;;4956495;28;20504;-72
2022/10/14 13:09:37;;;;;;;4.40;4.00;;;15.30;99.90;;;;;;4959239;28;20531;-71
2022/10/14 13:12:30;;;;;;;5.77;4.20;;;15.30;99.90;;;;;;4947879;29;20427;-72
2022/10/14 13:14:59;;;;;;;4.93;4.20;;;15.40;99.90;;;;;;4966279;28;20434;-73
2022/10/14 13:17:46;;;;;;;5.77;4.63;;;15.30;99.90;;;;;;4938746;28;21226;-72
2022/10/14 13:20:46;;;;;;;4.73;4.23;;;15.40;99.90;;;;;;4899682;29;20452;-72
2022/10/14 13:23:27;;;;;;;5.23;4.77;;;15.40;99.90;;;;;;4921294;28;20509;-73
2022/10/14 13:26:24;;;;;;;8.90;4.70;;;15.40;99.90;;;;;;4955195;28;20454;-73
2022/10/14 13:29:17;;;;;;;6.33;4.53;;;15.40;99.90;;;;;;4953895;28;20497;-72
2022/10/14 13:32:03;;;;;;;5.67;5.07;;;15.40;99.90;;;;;;4938178;29;21041;-72
2022/10/14 13:34:34;;;;;;;7.43;5.33;;;15.40;99.90;;;;;;4941300;29;20433;-72
2022/10/14 13:37:20;;;;;;;5.23;4.67;;;15.40;99.90;;;;;;4951449;29;20455;-72
2022/10/14 13:39:46;;;;;;;5.23;4.70;;;15.40;99.90;;;;;;4945934;29;20466;-73